Accueil
METAR-TAF:

METAR-TAF

Aéroports :

Albert, France

Aéroport Albert-Picardie

latitude: 49-58-21N, longitude: 002-41-29E, altitude: 111 m

Observation

Le bulletin a été fait il y a 32 minutes, à 18:00 UTC
Vent 6 kt de ouest
Température 0°C
Humidité 93%
Pression 1019 hPa
Visibilité 10 km ou plus
pas de nuages en-dessous de 1500 mètres et pas de cumulonimbus.

METAR: LFAQ 161800Z AUTO 28006KT CAVOK 00/M01 Q1019 NOSIG

Heure: 19:32 (18:32 UTC)

Prévision

Le bulletin a été fait il y a 4 heures et 32 minutes, à 14:00 UTC
Prévision valable du 16 à 15 UTC au 16 à 24 UTC
Vent 10 kt de ouest/nord-ouest
Visibilité 10 km ou plus
Nuages fragmentés à une hauteur de 1800 ft
Evoluant progressivement
du 16 à 22 UTC au 16 à 24 UTC
Visibilité: 2000 m
Ciel couvert à une hauteur de 300 ft
brume

TAF: LFAQ 161400Z 1615/1624 30010KT 9999 BKN018 BECMG 1622/1624 2000 BR OVC003

Observations et prévisions météorologiques de plus de 4000 aéroports (messages METAR et TAF).

Les stations disponibles sont représentées par des disques jaunes et rouges sur la carte.

Passer la souris dessus pour voir le nom de la station.

Cliquer dessus pour voir les observations et prévisions météorologiques.

Pour changer de carte: cliquez sur les boutons verts avec une croix noire pour zoomer, sur le bouton vert avec un tiret pour effectuer un zoom arrière, ou sur les flèches vertes pour les cartes adjacentes.


METAR-TAF: